Time;durP1;ratioP1;P1;durP2;ratioP2;P2;SDS_P1;SDS_P2;PMS_P1;PMS_P2;Temp;Humidity;BMP_temperature;BMP_pressure;BME280_temperature;BME280_humidity;BME280_pressure;Samples;Min_cycle;Max_cycle;Signal;HPM_P1;HPM_P2
2021/07/25 00:02:36;;;;;;;43.0;38.9;;;;;;;19.7;68.1;100610;;;;
2021/07/25 00:12:36;;;;;;;43.0;38.9;;;;;;;19.6;67.5;100620;;;;
2021/07/25 00:14:36;;;;;;;41.1;37.2;;;;;;;19.8;66.2;100620;;;;
2021/07/25 00:18:36;;;;;;;41.1;37.2;;;;;;;19.7;68.9;100610;;;;
2021/07/25 00:20:36;;;;;;;41.1;37.2;;;;;;;19.6;68.0;100610;;;;
2021/07/25 00:22:36;;;;;;;41.1;37.2;;;;;;;19.7;66.8;100610;;;;
2021/07/25 00:26:37;;;;;;;41.1;37.2;;;;;;;19.6;68.2;100590;;;;
2021/07/25 00:34:36;;;;;;;38.5;34.8;;;;;;;19.7;67.1;100580;;;;
2021/07/25 00:36:37;;;;;;;38.5;34.8;;;;;;;19.5;69.0;100580;;;;
2021/07/25 00:38:36;;;;;;;38.5;34.8;;;;;;;19.6;68.0;100580;;;;
2021/07/25 00:42:36;;;;;;;38.5;34.8;;;;;;;19.5;68.5;100580;;;;
2021/07/25 00:52:36;;;;;;;38.5;34.8;;;;;;;19.4;67.2;100590;;;;
2021/07/25 00:54:36;;;;;;;30.7;27.8;;;;;;;19.5;67.0;100580;;;;
2021/07/25 00:56:36;;;;;;;30.7;27.8;;;;;;;19.4;67.1;100590;;;;
2021/07/25 01:00:36;;;;;;;30.7;27.8;;;;;;;19.3;69.5;100590;;;;
2021/07/25 01:02:36;;;;;;;30.7;27.8;;;;;;;19.2;69.8;100580;;;;
2021/07/25 01:08:36;;;;;;;30.7;27.8;;;;;;;19.1;69.0;100570;;;;
2021/07/25 01:12:36;;;;;;;30.7;27.8;;;;;;;19.2;67.0;100570;;;;
2021/07/25 01:18:36;;;;;;;26.7;24.2;;;;;;;19.1;67.1;100570;;;;
2021/07/25 01:26:46;;;;;;;26.7;24.2;;;;;;;19.0;69.2;100560;;;;
2021/07/25 01:30:36;;;;;;;26.7;24.2;;;;;;;19.1;68.8;100570;;;;
2021/07/25 01:32:36;;;;;;;26.7;24.2;;;;;;;19.0;68.4;100570;;;;
2021/07/25 01:34:36;;;;;;;23.2;21.1;;;;;;;19.1;68.8;100570;;;;
2021/07/25 01:36:36;;;;;;;23.2;21.1;;;;;;;18.9;68.4;100560;;;;
2021/07/25 01:40:36;;;;;;;23.2;21.1;;;;;;;19.0;68.1;100560;;;;
2021/07/25 01:44:36;;;;;;;23.2;21.1;;;;;;;18.9;68.1;100570;;;;
2021/07/25 01:50:36;;;;;;;23.2;21.1;;;;;;;18.8;68.1;100570;;;;
2021/07/25 02:00:36;;;;;;;18.5;16.9;;;;;;;18.7;66.7;100570;;;;
2021/07/25 02:02:36;;;;;;;18.5;16.9;;;;;;;18.8;66.9;100570;;;;
2021/07/25 02:04:36;;;;;;;18.5;16.9;;;;;;;18.6;67.6;100560;;;;
2021/07/25 02:06:36;;;;;;;18.5;16.9;;;;;;;18.7;68.0;100560;;;;
2021/07/25 02:10:36;;;;;;;18.5;16.9;;;;;;;18.6;66.9;100560;;;;
2021/07/25 02:12:36;;;;;;;18.5;16.9;;;;;;;18.7;67.0;100560;;;;
2021/07/25 02:16:36;;;;;;;17.4;15.8;;;;;;;18.6;66.7;100560;;;;
2021/07/25 02:18:36;;;;;;;17.4;15.8;;;;;;;18.5;67.6;100560;;;;
2021/07/25 02:20:36;;;;;;;17.4;15.8;;;;;;;18.6;67.2;100550;;;;
2021/07/25 02:26:36;;;;;;;17.4;15.8;;;;;;;18.5;68.3;100550;;;;
2021/07/25 02:28:36;;;;;;;17.4;15.8;;;;;;;18.6;67.8;100550;;;;
2021/07/25 02:32:36;;;;;;;17.4;15.8;;;;;;;18.5;67.1;100540;;;;
2021/07/25 02:34:37;;;;;;;18.2;16.5;;;;;;;18.6;65.6;100530;;;;
2021/07/25 02:42:36;;;;;;;18.2;16.5;;;;;;;18.5;65.3;100530;;;;
2021/07/25 02:48:36;;;;;;;18.2;16.5;;;;;;;18.4;65.9;100540;;;;
2021/07/25 02:50:36;;;;;;;18.2;16.5;;;;;;;18.2;68.8;100540;;;;
2021/07/25 03:00:36;;;;;;;18.7;16.9;;;;;;;18.1;70.5;100540;;;;
2021/07/25 03:06:36;;;;;;;18.7;16.9;;;;;;;18.3;70.6;100540;;;;
2021/07/25 03:08:36;;;;;;;18.7;16.9;;;;;;;18.1;69.2;100530;;;;
2021/07/25 03:12:36;;;;;;;18.7;16.9;;;;;;;18.0;70.0;100530;;;;
2021/07/25 03:14:36;;;;;;;16.7;15.1;;;;;;;18.1;70.0;100530;;;;
2021/07/25 03:18:36;;;;;;;16.7;15.1;;;;;;;18.0;68.6;100530;;;;
2021/07/25 03:30:36;;;;;;;16.7;15.1;;;;;;;17.9;69.3;100520;;;;
2021/07/25 03:34:36;;;;;;;15.3;13.9;;;;;;;18.0;67.5;100520;;;;
2021/07/25 03:36:36;;;;;;;15.3;13.9;;;;;;;17.9;68.3;100530;;;;
2021/07/25 03:40:36;;;;;;;15.3;13.9;;;;;;;17.8;69.5;100520;;;;
2021/07/25 03:44:36;;;;;;;15.3;13.9;;;;;;;17.9;68.7;100520;;;;
2021/07/25 03:46:36;;;;;;;15.3;13.9;;;;;;;17.8;69.5;100520;;;;
2021/07/25 03:50:36;;;;;;;15.3;13.9;;;;;;;17.9;68.9;100530;;;;
2021/07/25 03:54:38;;;;;;;15.1;13.7;;;;;;;18.0;68.0;100520;;;;
2021/07/25 03:58:36;;;;;;;15.1;13.7;;;;;;;17.9;68.1;100530;;;;
2021/07/25 04:04:36;;;;;;;15.1;13.7;;;;;;;18.0;69.0;100530;;;;
2021/07/25 04:06:36;;;;;;;15.1;13.7;;;;;;;17.9;69.5;100530;;;;
2021/07/25 04:10:36;;;;;;;15.1;13.7;;;;;;;18.0;68.9;100520;;;;
2021/07/25 04:22:36;;;;;;;14.6;13.2;;;;;;;18.1;68.0;100520;;;;
2021/07/25 04:28:36;;;;;;;14.6;13.2;;;;;;;18.0;68.4;100530;;;;
2021/07/25 04:34:36;;;;;;;14.7;13.1;;;;;;;18.1;67.1;100530;;;;
2021/07/25 04:36:36;;;;;;;14.7;13.1;;;;;;;18.0;68.6;100530;;;;
2021/07/25 04:52:36;;;;;;;14.7;13.1;;;;;;;18.1;67.8;100530;;;;
2021/07/25 04:54:36;;;;;;;13.9;12.6;;;;;;;18.2;67.8;100530;;;;
2021/07/25 05:06:36;;;;;;;13.9;12.6;;;;;;;18.3;69.2;100530;;;;
2021/07/25 05:10:36;;;;;;;13.9;12.6;;;;;;;18.4;68.3;100540;;;;
2021/07/25 05:20:36;;;;;;;13.2;11.9;;;;;;;18.5;67.4;100550;;;;
2021/07/25 05:28:36;;;;;;;13.2;11.9;;;;;;;18.6;68.1;100550;;;;
2021/07/25 05:30:39;;;;;;;13.2;11.9;;;;;;;18.8;67.8;100550;;;;
2021/07/25 05:32:36;;;;;;;13.2;11.9;;;;;;;18.7;67.2;100550;;;;
2021/07/25 05:34:36;;;;;;;13.2;11.9;;;;;;;18.8;67.2;100560;;;;
2021/07/25 05:38:36;;;;;;;13.2;11.9;;;;;;;18.9;67.9;100560;;;;
2021/07/25 05:44:36;;;;;;;13.2;11.9;;;;;;;19.0;67.8;100550;;;;
2021/07/25 05:46:36;;;;;;;13.2;11.9;;;;;;;18.9;66.6;100560;;;;
2021/07/25 05:52:36;;;;;;;13.2;11.9;;;;;;;19.0;68.0;100560;;;;
2021/07/25 05:58:37;;;;;;;12.8;11.6;;;;;;;19.2;68.7;100560;;;;
2021/07/25 06:06:39;;;;;;;12.8;11.6;;;;;;;19.3;67.7;100560;;;;
2021/07/25 06:08:36;;;;;;;12.8;11.6;;;;;;;19.4;67.2;100560;;;;
2021/07/25 06:12:36;;;;;;;12.8;11.6;;;;;;;19.5;68.0;100560;;;;
2021/07/25 06:16:36;;;;;;;15.3;13.9;;;;;;;19.6;68.4;100550;;;;
2021/07/25 06:18:36;;;;;;;15.3;13.9;;;;;;;19.5;68.6;100550;;;;
2021/07/25 06:20:37;;;;;;;15.3;13.9;;;;;;;19.7;67.7;100550;;;;
2021/07/25 06:22:36;;;;;;;15.3;13.9;;;;;;;19.6;68.7;100550;;;;
2021/07/25 06:24:36;;;;;;;15.3;13.9;;;;;;;19.8;66.6;100550;;;;
2021/07/25 06:28:36;;;;;;;15.3;13.9;;;;;;;19.9;67.4;100550;;;;
2021/07/25 06:30:36;;;;;;;15.3;13.9;;;;;;;20.0;67.7;100540;;;;
2021/07/25 06:34:36;;;;;;;16.8;15.1;;;;;;;20.1;68.3;100540;;;;
2021/07/25 06:36:36;;;;;;;16.8;15.1;;;;;;;20.2;67.1;100550;;;;
2021/07/25 06:38:36;;;;;;;16.8;15.1;;;;;;;20.5;67.4;100550;;;;
2021/07/25 06:44:36;;;;;;;16.8;15.1;;;;;;;20.6;66.8;100550;;;;
2021/07/25 06:46:36;;;;;;;16.8;15.1;;;;;;;20.7;65.3;100550;;;;
2021/07/25 06:50:36;;;;;;;16.8;15.1;;;;;;;20.9;65.2;100550;;;;
2021/07/25 06:52:36;;;;;;;16.8;15.1;;;;;;;21.0;65.2;100550;;;;
2021/07/25 06:56:36;;;;;;;16.3;14.7;;;;;;;21.1;65.4;100550;;;;
2021/07/25 07:02:36;;;;;;;16.3;14.7;;;;;;;21.2;64.8;100560;;;;
2021/07/25 07:08:36;;;;;;;16.3;14.7;;;;;;;21.4;64.7;100560;;;;
2021/07/25 07:14:36;;;;;;;13.0;11.7;;;;;;;21.6;63.5;100550;;;;
2021/07/25 07:16:36;;;;;;;13.0;11.7;;;;;;;21.5;64.5;100550;;;;
2021/07/25 07:18:36;;;;;;;13.0;11.7;;;;;;;21.6;64.4;100560;;;;
2021/07/25 07:20:36;;;;;;;13.0;11.7;;;;;;;21.7;64.7;100560;;;;
2021/07/25 07:22:36;;;;;;;13.0;11.7;;;;;;;21.6;64.1;100560;;;;
2021/07/25 07:24:36;;;;;;;13.0;11.7;;;;;;;21.7;63.3;100560;;;;
2021/07/25 07:26:36;;;;;;;13.0;11.7;;;;;;;21.8;63.0;100560;;;;
2021/07/25 07:28:37;;;;;;;13.0;11.7;;;;;;;21.7;63.6;100560;;;;
2021/07/25 07:30:36;;;;;;;13.0;11.7;;;;;;;21.9;63.3;100560;;;;
2021/07/25 07:32:36;;;;;;;13.0;11.7;;;;;;;21.8;63.4;100560;;;;
2021/07/25 07:34:36;;;;;;;12.3;11.0;;;;;;;21.9;61.8;100560;;;;
2021/07/25 07:36:36;;;;;;;12.3;11.0;;;;;;;21.8;62.2;100560;;;;
2021/07/25 07:38:36;;;;;;;12.3;11.0;;;;;;;21.9;63.6;100560;;;;
2021/07/25 07:40:36;;;;;;;12.3;11.0;;;;;;;22.0;62.9;100560;;;;
2021/07/25 07:42:38;;;;;;;12.3;11.0;;;;;;;21.9;62.5;100560;;;;
2021/07/25 07:44:36;;;;;;;12.3;11.0;;;;;;;22.0;62.5;100560;;;;
2021/07/25 07:46:36;;;;;;;12.3;11.0;;;;;;;22.1;62.2;100560;;;;
2021/07/25 07:56:36;;;;;;;10.6;9.6;;;;;;;22.2;61.5;100570;;;;
2021/07/25 07:58:36;;;;;;;10.6;9.6;;;;;;;22.3;60.8;100570;;;;
2021/07/25 08:02:37;;;;;;;10.6;9.6;;;;;;;22.2;62.4;100560;;;;
2021/07/25 08:06:38;;;;;;;10.6;9.6;;;;;;;22.0;61.7;100560;;;;
2021/07/25 08:08:36;;;;;;;10.6;9.6;;;;;;;22.3;62.2;100570;;;;
2021/07/25 08:10:36;;;;;;;10.6;9.6;;;;;;;22.4;62.2;100570;;;;
2021/07/25 08:12:36;;;;;;;10.6;9.6;;;;;;;22.5;62.2;100570;;;;
2021/07/25 08:14:37;;;;;;;11.7;10.6;;;;;;;22.7;62.2;100570;;;;
2021/07/25 08:16:36;;;;;;;11.7;10.6;;;;;;;22.6;62.2;100580;;;;
2021/07/25 08:18:36;;;;;;;11.7;10.6;;;;;;;22.8;60.8;100570;;;;
2021/07/25 08:22:36;;;;;;;11.7;10.6;;;;;;;22.9;61.1;100570;;;;
2021/07/25 08:24:38;;;;;;;11.7;10.6;;;;;;;23.0;60.5;100570;;;;
2021/07/25 08:30:36;;;;;;;11.7;10.6;;;;;;;22.9;61.1;100580;;;;
2021/07/25 08:32:36;;;;;;;11.7;10.6;;;;;;;23.1;59.7;100580;;;;
2021/07/25 08:34:36;;;;;;;10.8;9.7;;;;;;;23.2;59.6;100580;;;;
2021/07/25 08:36:36;;;;;;;10.8;9.7;;;;;;;23.1;59.9;100580;;;;
2021/07/25 08:38:38;;;;;;;10.8;9.7;;;;;;;23.4;60.5;100580;;;;
2021/07/25 08:40:36;;;;;;;10.8;9.7;;;;;;;23.3;60.8;100580;;;;
2021/07/25 08:42:36;;;;;;;10.8;9.7;;;;;;;23.4;61.2;100590;;;;
2021/07/25 08:44:36;;;;;;;10.8;9.7;;;;;;;23.5;60.9;100580;;;;
2021/07/25 08:46:36;;;;;;;10.8;9.7;;;;;;;23.6;58.9;100590;;;;
2021/07/25 08:48:36;;;;;;;10.8;9.7;;;;;;;23.7;60.2;100590;;;;
2021/07/25 08:52:36;;;;;;;10.8;9.7;;;;;;;23.8;59.8;100590;;;;
2021/07/25 08:54:36;;;;;;;10.6;8.7;;;;;;;23.9;59.1;100590;;;;
2021/07/25 08:56:36;;;;;;;10.6;8.7;;;;;;;24.0;59.3;100590;;;;
2021/07/25 08:58:36;;;;;;;10.6;8.7;;;;;;;23.9;58.9;100590;;;;
2021/07/25 09:00:36;;;;;;;10.6;8.7;;;;;;;24.1;58.4;100590;;;;
2021/07/25 09:04:36;;;;;;;10.6;8.7;;;;;;;24.0;58.0;100590;;;;
2021/07/25 09:10:36;;;;;;;10.6;8.7;;;;;;;24.1;58.1;100600;;;;
2021/07/25 09:14:36;;;;;;;9.0;8.1;;;;;;;24.2;58.3;100590;;;;
2021/07/25 09:16:36;;;;;;;9.0;8.1;;;;;;;24.4;57.7;100590;;;;
2021/07/25 09:18:36;;;;;;;9.0;8.1;;;;;;;24.3;57.1;100590;;;;
2021/07/25 09:26:36;;;;;;;9.0;8.1;;;;;;;24.4;57.3;100590;;;;
2021/07/25 09:30:36;;;;;;;9.0;8.1;;;;;;;24.5;56.6;100590;;;;
2021/07/25 09:32:37;;;;;;;9.0;8.1;;;;;;;24.6;55.8;100590;;;;
2021/07/25 09:34:36;;;;;;;6.8;6.1;;;;;;;24.5;55.8;100600;;;;
2021/07/25 09:36:37;;;;;;;6.8;6.1;;;;;;;24.6;56.6;100600;;;;
2021/07/25 09:38:36;;;;;;;6.8;6.1;;;;;;;24.7;56.6;100590;;;;
2021/07/25 09:42:36;;;;;;;6.8;6.1;;;;;;;24.8;55.9;100600;;;;
2021/07/25 09:44:36;;;;;;;6.8;6.1;;;;;;;24.7;55.4;100590;;;;
2021/07/25 09:46:36;;;;;;;6.8;6.1;;;;;;;24.8;55.9;100590;;;;
2021/07/25 09:48:36;;;;;;;6.8;6.1;;;;;;;24.9;55.8;100590;;;;
2021/07/25 09:50:36;;;;;;;6.8;6.1;;;;;;;25.0;54.7;100590;;;;
2021/07/25 09:54:36;;;;;;;7.3;6.1;;;;;;;25.2;55.5;100590;;;;
2021/07/25 09:56:36;;;;;;;7.3;6.1;;;;;;;25.1;54.6;100590;;;;
2021/07/25 10:00:36;;;;;;;7.3;6.1;;;;;;;25.2;55.1;100590;;;;
2021/07/25 10:02:38;;;;;;;7.3;6.1;;;;;;;25.3;55.0;100590;;;;
2021/07/25 10:04:36;;;;;;;7.3;6.1;;;;;;;25.2;54.6;100590;;;;
2021/07/25 10:06:37;;;;;;;7.3;6.1;;;;;;;25.3;54.5;100590;;;;
2021/07/25 10:08:36;;;;;;;7.3;6.1;;;;;;;25.4;54.0;100590;;;;
2021/07/25 10:10:36;;;;;;;7.3;6.1;;;;;;;25.5;54.3;100580;;;;
2021/07/25 10:12:36;;;;;;;7.3;6.1;;;;;;;25.6;53.8;100580;;;;
2021/07/25 10:18:36;;;;;;;7.2;4.9;;;;;;;25.4;53.1;100580;;;;
2021/07/25 10:20:36;;;;;;;7.2;4.9;;;;;;;25.5;52.6;100580;;;;
2021/07/25 10:24:36;;;;;;;7.2;4.9;;;;;;;25.6;53.4;100580;;;;
2021/07/25 10:26:37;;;;;;;7.2;4.9;;;;;;;25.5;52.6;100580;;;;
2021/07/25 10:28:36;;;;;;;7.2;4.9;;;;;;;25.6;53.3;100570;;;;
2021/07/25 10:30:36;;;;;;;7.2;4.9;;;;;;;25.7;52.2;100570;;;;
2021/07/25 10:34:39;;;;;;;5.1;4.6;;;;;;;26.0;52.6;100570;;;;
2021/07/25 10:38:36;;;;;;;5.1;4.6;;;;;;;26.1;52.2;100570;;;;
2021/07/25 10:40:36;;;;;;;5.1;4.6;;;;;;;26.2;51.7;100570;;;;
2021/07/25 10:42:36;;;;;;;5.1;4.6;;;;;;;26.3;51.7;100570;;;;
2021/07/25 10:44:38;;;;;;;5.1;4.6;;;;;;;26.5;50.4;100570;;;;
2021/07/25 10:48:36;;;;;;;5.1;4.6;;;;;;;26.6;51.1;100580;;;;
2021/07/25 10:50:36;;;;;;;5.1;4.6;;;;;;;26.5;48.5;100570;;;;
2021/07/25 10:52:36;;;;;;;5.1;4.6;;;;;;;26.6;49.5;100570;;;;
2021/07/25 10:54:36;;;;;;;3.5;3.2;;;;;;;26.8;49.9;100570;;;;
2021/07/25 10:56:36;;;;;;;3.5;3.2;;;;;;;26.9;48.9;100570;;;;
2021/07/25 10:58:36;;;;;;;3.5;3.2;;;;;;;26.8;47.0;100570;;;;
2021/07/25 11:00:36;;;;;;;3.5;3.2;;;;;;;27.0;48.2;100570;;;;
2021/07/25 11:02:36;;;;;;;3.5;3.2;;;;;;;26.9;45.6;100560;;;;
2021/07/25 11:06:38;;;;;;;3.5;3.2;;;;;;;26.8;45.9;100570;;;;
2021/07/25 11:08:36;;;;;;;3.5;3.2;;;;;;;26.7;46.2;100570;;;;
2021/07/25 11:10:36;;;;;;;3.5;3.2;;;;;;;27.0;45.8;100560;;;;
2021/07/25 11:14:36;;;;;;;4.9;2.6;;;;;;;27.2;44.5;100560;;;;
2021/07/25 11:16:38;;;;;;;4.9;2.6;;;;;;;27.0;45.2;100560;;;;
2021/07/25 11:22:36;;;;;;;4.9;2.6;;;;;;;26.9;45.1;100560;;;;
2021/07/25 11:26:36;;;;;;;4.9;2.6;;;;;;;26.8;47.5;100550;;;;
2021/07/25 11:28:36;;;;;;;4.9;2.6;;;;;;;26.9;46.2;100550;;;;
2021/07/25 11:30:36;;;;;;;4.9;2.6;;;;;;;27.0;45.2;100550;;;;
2021/07/25 11:32:36;;;;;;;4.9;2.6;;;;;;;27.2;46.1;100550;;;;
2021/07/25 11:34:37;;;;;;;4.4;2.5;;;;;;;27.3;47.3;100550;;;;
2021/07/25 11:36:36;;;;;;;4.4;2.5;;;;;;;27.4;47.2;100540;;;;
2021/07/25 11:38:36;;;;;;;4.4;2.5;;;;;;;27.3;45.0;100560;;;;
2021/07/25 11:40:36;;;;;;;4.4;2.5;;;;;;;27.1;44.0;100550;;;;
2021/07/25 11:42:36;;;;;;;4.4;2.5;;;;;;;27.3;44.2;100550;;;;
2021/07/25 11:44:40;;;;;;;4.4;2.5;;;;;;;27.2;45.3;100550;;;;
2021/07/25 11:46:36;;;;;;;4.4;2.5;;;;;;;27.4;45.8;100550;;;;
2021/07/25 11:48:36;;;;;;;4.4;2.5;;;;;;;27.6;45.3;100550;;;;
2021/07/25 11:50:36;;;;;;;4.4;2.5;;;;;;;27.7;46.4;100550;;;;
2021/07/25 11:52:36;;;;;;;4.4;2.5;;;;;;;27.8;45.9;100550;;;;
2021/07/25 11:54:36;;;;;;;3.9;2.9;;;;;;;27.9;46.3;100550;;;;
2021/07/25 11:56:36;;;;;;;3.9;2.9;;;;;;;27.7;43.3;100550;;;;
2021/07/25 11:58:36;;;;;;;3.9;2.9;;;;;;;27.8;44.9;100550;;;;
2021/07/25 12:00:36;;;;;;;3.9;2.9;;;;;;;27.9;44.3;100550;;;;
2021/07/25 12:02:39;;;;;;;3.9;2.9;;;;;;;27.8;43.9;100550;;;;
2021/07/25 12:08:36;;;;;;;3.9;2.9;;;;;;;27.4;44.2;100540;;;;
2021/07/25 12:10:36;;;;;;;3.9;2.9;;;;;;;27.6;46.1;100540;;;;
2021/07/25 12:16:36;;;;;;;6.0;2.6;;;;;;;27.5;44.5;100560;;;;
2021/07/25 12:18:36;;;;;;;6.0;2.6;;;;;;;27.6;42.7;100560;;;;
2021/07/25 12:20:36;;;;;;;6.0;2.6;;;;;;;27.5;44.7;100550;;;;
2021/07/25 12:22:36;;;;;;;6.0;2.6;;;;;;;27.4;44.2;100550;;;;
2021/07/25 12:24:36;;;;;;;6.0;2.6;;;;;;;27.5;45.3;100550;;;;
2021/07/25 12:26:36;;;;;;;6.0;2.6;;;;;;;27.6;45.5;100550;;;;
2021/07/25 12:28:36;;;;;;;6.0;2.6;;;;;;;27.5;43.1;100550;;;;
2021/07/25 12:30:36;;;;;;;6.0;2.6;;;;;;;27.4;43.3;100560;;;;
2021/07/25 12:32:36;;;;;;;6.0;2.6;;;;;;;27.5;43.5;100550;;;;
2021/07/25 12:34:36;;;;;;;3.1;2.2;;;;;;;27.3;44.5;100550;;;;
2021/07/25 12:36:36;;;;;;;3.1;2.2;;;;;;;27.4;45.6;100560;;;;
2021/07/25 12:38:36;;;;;;;3.1;2.2;;;;;;;27.3;44.9;100560;;;;
2021/07/25 12:40:36;;;;;;;3.1;2.2;;;;;;;27.2;43.9;100560;;;;
2021/07/25 12:42:36;;;;;;;3.1;2.2;;;;;;;27.4;47.0;100560;;;;
2021/07/25 12:44:36;;;;;;;3.1;2.2;;;;;;;27.1;45.8;100560;;;;
2021/07/25 12:46:36;;;;;;;3.1;2.2;;;;;;;27.0;46.0;100560;;;;
2021/07/25 12:50:36;;;;;;;3.1;2.2;;;;;;;27.2;47.7;100560;;;;
2021/07/25 12:52:36;;;;;;;3.1;2.2;;;;;;;27.3;46.9;100560;;;;
2021/07/25 12:54:36;;;;;;;2.7;2.4;;;;;;;27.6;45.6;100560;;;;
2021/07/25 12:56:36;;;;;;;2.7;2.4;;;;;;;27.9;46.9;100550;;;;
2021/07/25 12:58:37;;;;;;;2.7;2.4;;;;;;;28.0;46.0;100550;;;;
2021/07/25 13:00:47;;;;;;;2.7;2.4;;;;;;;28.3;44.3;100550;;;;
2021/07/25 13:04:36;;;;;;;2.7;2.4;;;;;;;28.8;43.4;100550;;;;
2021/07/25 13:06:40;;;;;;;2.7;2.4;;;;;;;28.9;42.4;100550;;;;
2021/07/25 13:10:38;;;;;;;2.7;2.4;;;;;;;29.1;41.7;100550;;;;
2021/07/25 13:14:36;;;;;;;3.7;2.3;;;;;;;29.2;41.1;100550;;;;
2021/07/25 13:18:36;;;;;;;3.7;2.3;;;;;;;29.4;41.0;100550;;;;
2021/07/25 13:20:36;;;;;;;3.7;2.3;;;;;;;29.2;39.6;100550;;;;
2021/07/25 13:24:36;;;;;;;3.7;2.3;;;;;;;29.3;42.4;100550;;;;
2021/07/25 13:26:36;;;;;;;3.7;2.3;;;;;;;29.2;42.5;100550;;;;
2021/07/25 13:28:36;;;;;;;3.7;2.3;;;;;;;29.1;41.0;100550;;;;
2021/07/25 13:30:36;;;;;;;3.7;2.3;;;;;;;29.3;40.0;100560;;;;
2021/07/25 13:32:36;;;;;;;3.7;2.3;;;;;;;29.2;40.4;100560;;;;
2021/07/25 13:34:36;;;;;;;3.0;1.9;;;;;;;28.8;38.5;100560;;;;
2021/07/25 13:36:36;;;;;;;3.0;1.9;;;;;;;28.6;40.4;100560;;;;
2021/07/25 13:42:36;;;;;;;3.0;1.9;;;;;;;28.5;38.2;100570;;;;
2021/07/25 13:44:36;;;;;;;3.0;1.9;;;;;;;28.8;39.4;100560;;;;
2021/07/25 13:48:36;;;;;;;3.0;1.9;;;;;;;29.2;39.8;100560;;;;
2021/07/25 13:52:36;;;;;;;3.0;1.9;;;;;;;29.1;38.1;100550;;;;
2021/07/25 13:54:37;;;;;;;2.3;1.7;;;;;;;29.2;39.0;100550;;;;
2021/07/25 13:56:36;;;;;;;2.3;1.7;;;;;;;29.4;40.7;100550;;;;
2021/07/25 13:58:36;;;;;;;2.3;1.7;;;;;;;29.5;39.8;100560;;;;
2021/07/25 14:00:37;;;;;;;2.3;1.7;;;;;;;29.2;39.1;100550;;;;
2021/07/25 14:02:37;;;;;;;2.3;1.7;;;;;;;28.6;39.2;100550;;;;
2021/07/25 14:04:36;;;;;;;2.3;1.7;;;;;;;29.0;40.8;100550;;;;
2021/07/25 14:06:36;;;;;;;2.3;1.7;;;;;;;29.1;40.3;100550;;;;
2021/07/25 14:08:36;;;;;;;2.3;1.7;;;;;;;29.2;40.2;100540;;;;
2021/07/25 14:10:36;;;;;;;2.3;1.7;;;;;;;29.1;38.7;100550;;;;
2021/07/25 14:12:36;;;;;;;2.3;1.7;;;;;;;29.2;38.7;100550;;;;
2021/07/25 14:14:36;;;;;;;3.3;1.6;;;;;;;29.1;37.1;100550;;;;
2021/07/25 14:16:37;;;;;;;3.3;1.6;;;;;;;28.9;37.5;100550;;;;
2021/07/25 14:18:36;;;;;;;3.3;1.6;;;;;;;28.8;37.3;100530;;;;
2021/07/25 14:20:36;;;;;;;3.3;1.6;;;;;;;28.9;37.5;100540;;;;
2021/07/25 14:22:36;;;;;;;3.3;1.6;;;;;;;29.1;37.4;100540;;;;
2021/07/25 14:24:36;;;;;;;3.3;1.6;;;;;;;29.3;37.6;100530;;;;
2021/07/25 14:26:36;;;;;;;3.3;1.6;;;;;;;29.4;39.2;100540;;;;
2021/07/25 14:30:36;;;;;;;3.3;1.6;;;;;;;29.3;40.3;100540;;;;
2021/07/25 14:32:38;;;;;;;3.3;1.6;;;;;;;29.4;39.1;100540;;;;
2021/07/25 14:36:36;;;;;;;2.0;1.4;;;;;;;29.5;38.5;100530;;;;
2021/07/25 14:38:37;;;;;;;2.0;1.4;;;;;;;29.6;36.8;100530;;;;
2021/07/25 14:40:36;;;;;;;2.0;1.4;;;;;;;29.5;38.4;100530;;;;
2021/07/25 14:42:36;;;;;;;2.0;1.4;;;;;;;29.9;39.7;100530;;;;
2021/07/25 14:46:36;;;;;;;2.0;1.4;;;;;;;29.7;37.2;100530;;;;
2021/07/25 14:48:36;;;;;;;2.0;1.4;;;;;;;30.1;37.4;100530;;;;
2021/07/25 14:50:36;;;;;;;2.0;1.4;;;;;;;30.2;35.0;100540;;;;
2021/07/25 14:52:37;;;;;;;2.0;1.4;;;;;;;30.1;37.3;100530;;;;
2021/07/25 14:54:37;;;;;;;3.5;1.6;;;;;;;30.6;35.8;100530;;;;
2021/07/25 14:56:36;;;;;;;3.5;1.6;;;;;;;30.4;34.9;100520;;;;
2021/07/25 14:58:37;;;;;;;3.5;1.6;;;;;;;30.7;35.5;100520;;;;
2021/07/25 15:00:37;;;;;;;3.5;1.6;;;;;;;31.2;36.6;100520;;;;
2021/07/25 15:04:36;;;;;;;3.5;1.6;;;;;;;31.3;35.2;100510;;;;
2021/07/25 15:06:36;;;;;;;3.5;1.6;;;;;;;31.2;33.0;100520;;;;
2021/07/25 15:08:36;;;;;;;3.5;1.6;;;;;;;31.4;33.2;100510;;;;
2021/07/25 15:10:36;;;;;;;3.5;1.6;;;;;;;31.5;33.7;100510;;;;
2021/07/25 15:12:36;;;;;;;3.5;1.6;;;;;;;32.0;33.4;100520;;;;
2021/07/25 15:14:37;;;;;;;2.8;2.0;;;;;;;31.5;33.2;100510;;;;
2021/07/25 15:16:38;;;;;;;2.8;2.0;;;;;;;32.0;33.3;100510;;;;
2021/07/25 15:18:38;;;;;;;2.8;2.0;;;;;;;32.4;33.5;100510;;;;
2021/07/25 15:20:38;;;;;;;2.8;2.0;;;;;;;31.9;34.3;100510;;;;
2021/07/25 15:22:36;;;;;;;2.8;2.0;;;;;;;32.4;35.8;100510;;;;
2021/07/25 15:24:36;;;;;;;2.8;2.0;;;;;;;32.7;32.4;100520;;;;
2021/07/25 15:26:36;;;;;;;2.8;2.0;;;;;;;32.9;33.5;100520;;;;
2021/07/25 15:28:36;;;;;;;2.8;2.0;;;;;;;32.7;32.0;100520;;;;
2021/07/25 15:30:36;;;;;;;2.8;2.0;;;;;;;32.2;32.8;100510;;;;
2021/07/25 15:34:36;;;;;;;1.6;1.4;;;;;;;32.4;33.6;100520;;;;
2021/07/25 15:36:36;;;;;;;1.6;1.4;;;;;;;32.6;35.4;100520;;;;
2021/07/25 15:38:36;;;;;;;1.6;1.4;;;;;;;32.8;37.8;100520;;;;
2021/07/25 15:42:36;;;;;;;1.6;1.4;;;;;;;32.5;33.4;100520;;;;
2021/07/25 15:46:36;;;;;;;1.6;1.4;;;;;;;31.8;34.5;100520;;;;
2021/07/25 15:48:36;;;;;;;1.6;1.4;;;;;;;31.7;34.4;100530;;;;
2021/07/25 15:50:36;;;;;;;1.6;1.4;;;;;;;31.4;36.7;100530;;;;
2021/07/25 15:52:36;;;;;;;1.6;1.4;;;;;;;31.2;34.7;100530;;;;
2021/07/25 15:54:36;;;;;;;2.1;1.6;;;;;;;31.3;35.8;100530;;;;
2021/07/25 15:56:39;;;;;;;2.1;1.6;;;;;;;31.2;37.5;100530;;;;
2021/07/25 15:58:37;;;;;;;2.1;1.6;;;;;;;30.7;35.8;100530;;;;
2021/07/25 16:00:37;;;;;;;2.1;1.6;;;;;;;30.4;40.2;100530;;;;
2021/07/25 16:02:37;;;;;;;2.1;1.6;;;;;;;30.1;35.8;100530;;;;
2021/07/25 16:04:36;;;;;;;2.1;1.6;;;;;;;30.3;37.2;100530;;;;
2021/07/25 16:06:37;;;;;;;2.1;1.6;;;;;;;29.9;36.9;100530;;;;
2021/07/25 16:08:36;;;;;;;2.1;1.6;;;;;;;30.1;37.8;100540;;;;
2021/07/25 16:10:36;;;;;;;2.1;1.6;;;;;;;29.9;36.8;100540;;;;
2021/07/25 16:12:36;;;;;;;2.1;1.6;;;;;;;29.7;37.8;100530;;;;
2021/07/25 16:14:36;;;;;;;2.7;2.0;;;;;;;29.6;37.0;100540;;;;
2021/07/25 16:16:36;;;;;;;2.7;2.0;;;;;;;29.7;39.6;100540;;;;
2021/07/25 16:18:36;;;;;;;2.7;2.0;;;;;;;29.6;38.1;100530;;;;
2021/07/25 16:20:36;;;;;;;2.7;2.0;;;;;;;29.4;41.0;100530;;;;
2021/07/25 16:22:36;;;;;;;2.7;2.0;;;;;;;29.5;43.3;100530;;;;
2021/07/25 16:24:36;;;;;;;2.7;2.0;;;;;;;29.6;40.5;100530;;;;
2021/07/25 16:26:36;;;;;;;2.7;2.0;;;;;;;29.5;39.5;100530;;;;
2021/07/25 16:28:36;;;;;;;2.7;2.0;;;;;;;29.6;42.2;100520;;;;
2021/07/25 16:30:36;;;;;;;2.7;2.0;;;;;;;29.8;42.1;100520;;;;
2021/07/25 16:32:38;;;;;;;2.7;2.0;;;;;;;29.9;41.6;100520;;;;
2021/07/25 16:34:36;;;;;;;3.4;2.3;;;;;;;30.1;41.1;100520;;;;
2021/07/25 16:36:36;;;;;;;3.4;2.3;;;;;;;30.3;43.4;100520;;;;
2021/07/25 16:38:36;;;;;;;3.4;2.3;;;;;;;30.1;40.1;100520;;;;
2021/07/25 16:40:36;;;;;;;3.4;2.3;;;;;;;30.0;41.2;100520;;;;
2021/07/25 16:42:37;;;;;;;3.4;2.3;;;;;;;30.1;42.5;100510;;;;
2021/07/25 16:46:37;;;;;;;3.4;2.3;;;;;;;29.8;44.5;100510;;;;
2021/07/25 16:48:36;;;;;;;3.4;2.3;;;;;;;29.9;42.9;100510;;;;
2021/07/25 16:50:36;;;;;;;3.4;2.3;;;;;;;29.3;41.8;100520;;;;
2021/07/25 16:54:36;;;;;;;3.3;2.1;;;;;;;29.4;43.0;100510;;;;
2021/07/25 16:56:36;;;;;;;3.3;2.1;;;;;;;29.5;44.4;100510;;;;
2021/07/25 17:00:37;;;;;;;3.3;2.1;;;;;;;29.6;44.5;100510;;;;
2021/07/25 17:02:37;;;;;;;3.3;2.1;;;;;;;29.7;42.2;100510;;;;
2021/07/25 17:04:37;;;;;;;3.3;2.1;;;;;;;29.9;41.4;100520;;;;
2021/07/25 17:12:36;;;;;;;3.3;2.1;;;;;;;29.8;42.2;100540;;;;
2021/07/25 17:14:37;;;;;;;3.4;2.3;;;;;;;29.7;39.5;100540;;;;
2021/07/25 17:16:37;;;;;;;3.4;2.3;;;;;;;29.6;41.9;100540;;;;
2021/07/25 17:20:36;;;;;;;3.4;2.3;;;;;;;29.5;39.6;100550;;;;
2021/07/25 17:22:36;;;;;;;3.4;2.3;;;;;;;29.4;40.7;100550;;;;
2021/07/25 17:24:40;;;;;;;3.4;2.3;;;;;;;29.3;40.4;100550;;;;
2021/07/25 17:30:37;;;;;;;3.4;2.3;;;;;;;29.0;41.3;100550;;;;
2021/07/25 17:32:36;;;;;;;3.4;2.3;;;;;;;29.1;41.6;100550;;;;
2021/07/25 17:34:36;;;;;;;2.6;1.6;;;;;;;29.3;40.6;100550;;;;
2021/07/25 17:36:39;;;;;;;2.6;1.6;;;;;;;29.1;42.3;100550;;;;
2021/07/25 17:42:36;;;;;;;2.6;1.6;;;;;;;29.3;40.8;100550;;;;
2021/07/25 17:44:36;;;;;;;2.6;1.6;;;;;;;29.5;38.9;100550;;;;
2021/07/25 17:46:37;;;;;;;2.6;1.6;;;;;;;29.1;38.9;100550;;;;
2021/07/25 17:48:36;;;;;;;2.6;1.6;;;;;;;29.4;39.3;100550;;;;
2021/07/25 17:52:36;;;;;;;2.6;1.6;;;;;;;29.7;41.0;100540;;;;
2021/07/25 17:54:36;;;;;;;2.7;2.0;;;;;;;29.6;39.3;100550;;;;
2021/07/25 17:56:37;;;;;;;2.7;2.0;;;;;;;29.1;39.2;100540;;;;
2021/07/25 17:58:37;;;;;;;2.7;2.0;;;;;;;29.0;39.1;100540;;;;
2021/07/25 18:00:38;;;;;;;2.7;2.0;;;;;;;28.7;39.2;100540;;;;
2021/07/25 18:02:37;;;;;;;2.7;2.0;;;;;;;28.5;41.5;100550;;;;
2021/07/25 18:06:36;;;;;;;2.7;2.0;;;;;;;28.0;40.9;100570;;;;
2021/07/25 18:08:36;;;;;;;2.7;2.0;;;;;;;27.6;40.9;100570;;;;
2021/07/25 18:10:36;;;;;;;2.7;2.0;;;;;;;27.5;43.0;100570;;;;
2021/07/25 18:14:36;;;;;;;2.4;1.8;;;;;;;27.2;40.9;100570;;;;
2021/07/25 18:16:37;;;;;;;2.4;1.8;;;;;;;26.5;43.2;100570;;;;
2021/07/25 18:18:36;;;;;;;2.4;1.8;;;;;;;26.7;43.1;100570;;;;
2021/07/25 18:20:36;;;;;;;2.4;1.8;;;;;;;26.5;43.1;100570;;;;
2021/07/25 18:22:36;;;;;;;2.4;1.8;;;;;;;26.4;43.0;100570;;;;
2021/07/25 18:24:37;;;;;;;2.4;1.8;;;;;;;26.7;44.5;100570;;;;
2021/07/25 18:26:36;;;;;;;2.4;1.8;;;;;;;26.3;43.3;100570;;;;
2021/07/25 18:28:36;;;;;;;2.4;1.8;;;;;;;25.8;44.3;100570;;;;
2021/07/25 18:30:38;;;;;;;2.4;1.8;;;;;;;25.7;47.0;100560;;;;
2021/07/25 18:32:36;;;;;;;2.4;1.8;;;;;;;25.6;45.3;100560;;;;
2021/07/25 18:34:36;;;;;;;2.1;1.7;;;;;;;25.5;45.6;100560;;;;
2021/07/25 18:36:36;;;;;;;2.1;1.7;;;;;;;25.8;45.3;100560;;;;
2021/07/25 18:40:36;;;;;;;2.1;1.7;;;;;;;25.6;46.3;100560;;;;
2021/07/25 18:44:36;;;;;;;2.1;1.7;;;;;;;25.7;46.9;100560;;;;
2021/07/25 18:46:37;;;;;;;2.1;1.7;;;;;;;25.5;46.9;100570;;;;
2021/07/25 18:48:48;;;;;;;2.1;1.7;;;;;;;25.3;47.2;100570;;;;
2021/07/25 18:52:36;;;;;;;2.1;1.7;;;;;;;25.5;46.9;100570;;;;
2021/07/25 19:00:37;;;;;;;2.9;1.8;;;;;;;25.2;48.6;100570;;;;
2021/07/25 19:04:37;;;;;;;2.9;1.8;;;;;;;25.3;47.5;100570;;;;
2021/07/25 19:08:36;;;;;;;2.9;1.8;;;;;;;25.4;48.7;100580;;;;
2021/07/25 19:10:36;;;;;;;2.9;1.8;;;;;;;25.1;48.2;100580;;;;
2021/07/25 19:12:38;;;;;;;2.9;1.8;;;;;;;25.3;47.8;100580;;;;
2021/07/25 19:14:36;;;;;;;2.3;2.0;;;;;;;25.0;47.8;100580;;;;